Data for 01/19/2018

Time Sea-Level Adjusted Pressure Absolute Pressure Temperature Relative Humidity Dew Point   
(mb) (inHg) (mb) (inHg) (C) (F) (%) (C) (F)
00:05 1009 29.8 838 24.75 0.5 33 90 -0.9 30.5
00:10 1009 29.8 838 24.75 0.5 33 91 -0.8 30.5
00:15 1009 29.8 839 24.78 0.5 32.9 91 -0.8 30.5
00:20 1009 29.8 839 24.78 0.4 32.8 91 -0.9 30.4
00:25 1009 29.8 839 24.78 0.3 32.6 91 -0.9 30.3
00:30 1009 29.8 839 24.78 0.2 32.4 92 -0.9 30.3
00:35 1009 29.8 839 24.78 0.2 32.4 92 -0.9 30.4
00:40 1009 29.8 839 24.78 0.2 32.3 92 -0.9 30.3
00:45 1009 29.8 839 24.78 0.1 32.1 93 -1 30.2
00:50 1009 29.8 839 24.78 -0 32 93 -1 30.1
00:55 1009 29.8 839 24.78 -0 32 93 -1 30.2
01:00 1009 29.8 839 24.78 -0 32 93 -1 30.2
01:05 1009 29.8 838 24.75 -0.1 31.9 93 -1 30.2
01:10 1009 29.8 838 24.75 -0 31.9 93 -1 30.2
01:15 1009 29.8 838 24.75 -0 32 93 -1 30.3
01:20 1009 29.8 838 24.75 -0.1 31.9 94 -1 30.2
01:25 1009 29.8 838 24.75 -0 31.9 94 -0.9 30.3
01:30 1009 29.8 838 24.75 0 32 94 -0.9 30.4
01:35 1009 29.8 838 24.75 0 32 94 -0.9 30.4
01:40 1009 29.8 838 24.75 0 32.1 94 -0.9 30.4
01:45 1009 29.8 838 24.75 0 32.1 94 -0.8 30.5
01:50 1009 29.8 838 24.75 0.1 32.1 94 -0.8 30.6
01:55 1009 29.8 838 24.75 0.1 32.2 94 -0.8 30.6
02:00 1009 29.8 838 24.75 0.1 32.3 94 -0.7 30.7
02:05 1009 29.8 838 24.75 0.2 32.3 94 -0.7 30.8
02:10 1009 29.8 838 24.75 0.2 32.3 94 -0.7 30.7
02:15 1009 29.8 838 24.75 0.1 32.3 94 -0.7 30.7
02:20 1009 29.8 838 24.75 0.2 32.3 94 -0.7 30.7
02:25 1009 29.8 838 24.75 0.2 32.4 94 -0.7 30.8
02:30 1009 29.8 838 24.75 0.3 32.5 94 -0.6 30.9
02:35 1009 29.8 838 24.75 0.3 32.6 94 -0.6 31
02:40 1009 29.8 838 24.75 0.3 32.6 94 -0.5 31
02:45 1009 29.8 838 24.75 0.3 32.5 94 -0.6 30.9
02:50 1009 29.8 839 24.78 0.3 32.6 94 -0.6 30.9
02:55 1009 29.8 839 24.78 0.4 32.6 94 -0.5 31
03:00 1009 29.8 839 24.78 0.3 32.5 94 -0.6 30.9
03:05 1009 29.8 839 24.78 0.3 32.5 94 -0.6 30.8
03:10 1009 29.8 839 24.78 0.3 32.5 94 -0.6 30.9
03:15 1009 29.8 838 24.75 0.3 32.5 94 -0.6 30.9
03:20 1009 29.8 838 24.75 0.2 32.4 94 -0.7 30.8
03:25 1009 29.8 838 24.75 0.2 32.4 94 -0.7 30.7
03:30 1009 29.8 838 24.75 0.2 32.3 94 -0.7 30.7
03:35 1009 29.8 838 24.75 0.1 32.3 94 -0.8 30.6
03:40 1009 29.8 838 24.75 0.1 32.3 94 -0.8 30.6
03:45 1009 29.8 838 24.75 0.1 32.3 94 -0.8 30.6
03:50 1009 29.8 838 24.75 0.1 32.3 94 -0.8 30.6
03:55 1009 29.8 838 24.75 0.2 32.3 94 -0.7 30.8
04:00 1008 29.77 838 24.75 0.2 32.3 94 -0.7 30.7
04:05 1009 29.8 838 24.75 0.2 32.4 94 -0.7 30.8
04:10 1009 29.8 838 24.75 0.2 32.4 94 -0.7 30.8
04:15 1008 29.77 838 24.75 0.2 32.4 94 -0.6 30.9
04:20 1008 29.77 838 24.75 0.4 32.8 94 -0.5 31.2
04:25 1008 29.77 837 24.72 0.5 32.9 94 -0.4 31.3
04:30 1008 29.77 837 24.72 0.6 33.1 94 -0.3 31.5
04:35 1008 29.77 837 24.72 0.7 33.3 93 -0.2 31.6
04:40 1008 29.77 837 24.72 0.7 33.3 93 -0.3 31.5
04:45 1008 29.77 837 24.72 0.7 33.3 93 -0.3 31.5
04:50 1008 29.77 837 24.72 0.7 33.3 92 -0.4 31.3
04:55 1008 29.77 837 24.72 0.5 32.9 93 -0.6 31
05:00 1008 29.77 837 24.72 0.4 32.8 93 -0.6 30.9
05:05 1008 29.77 837 24.72 0.5 32.9 93 -0.5 31
05:10 1008 29.77 838 24.75 0.7 33.2 93 -0.4 31.3
05:15 1008 29.77 838 24.75 0.8 33.4 92 -0.3 31.5
05:20 1008 29.77 837 24.72 1 33.7 91 -0.4 31.3
05:25 1008 29.77 837 24.72 1 33.9 90 -0.4 31.2
05:30 1008 29.77 837 24.72 1.1 34 89 -0.4 31.3
05:35 1008 29.77 837 24.72 1.1 33.9 89 -0.6 31
05:40 1008 29.77 837 24.72 0.5 33 91 -0.8 30.5
05:45 1008 29.77 837 24.72 0.5 32.9 91 -0.8 30.6
05:50 1008 29.77 837 24.72 0.6 33 91 -0.7 30.7
05:55 1008 29.77 837 24.72 0.7 33.2 91 -0.6 30.9
06:00 1008 29.77 837 24.72 0.8 33.4 91 -0.6 30.9
06:05 1008 29.77 838 24.75 0.9 33.5 90 -0.6 30.9
06:10 1008 29.77 837 24.72 1 33.7 90 -0.6 31
06:15 1008 29.77 837 24.72 1 33.8 89 -0.6 31
06:20 1008 29.77 837 24.72 1 33.8 89 -0.6 30.9
06:25 1008 29.77 837 24.72 1 33.8 89 -0.7 30.8
06:30 1007 29.74 837 24.72 1 33.8 89 -0.7 30.8
06:35 1007 29.74 837 24.72 0.8 33.5 90 -0.7 30.7
06:40 1007 29.74 837 24.72 0.9 33.7 89 -0.7 30.7
06:45 1007 29.74 837 24.72 1.1 33.9 88 -0.7 30.8
06:50 1007 29.74 837 24.72 1.2 34.2 87 -0.7 30.8
06:55 1008 29.77 837 24.72 1.5 34.7 85 -0.7 30.7
07:00 1007 29.74 837 24.72 1.6 34.9 85 -0.7 30.8
07:05 1007 29.74 837 24.72 1.5 34.6 86 -0.7 30.8
07:10 1008 29.77 837 24.72 1.4 34.6 86 -0.7 30.7
07:15 1008 29.77 837 24.72 1.5 34.7 85 -0.8 30.6
07:20 1008 29.77 837 24.72 1.6 34.8 84 -0.8 30.6
07:25 1008 29.77 837 24.72 1.6 34.8 84 -0.8 30.6
07:30 1008 29.77 837 24.72 1.6 34.8 84 -0.8 30.6
07:35 1008 29.77 837 24.72 1.4 34.6 85 -0.8 30.6
07:40 1008 29.77 837 24.72 1.3 34.3 86 -0.8 30.6
07:45 1008 29.77 837 24.72 1.2 34.2 87 -0.8 30.6
07:50 1008 29.77 837 24.72 1.3 34.3 86 -0.8 30.5
07:55 1008 29.77 837 24.72 1.3 34.3 86 -0.7 30.7
08:00 1008 29.77 837 24.72 1.2 34.2 87 -0.7 30.7
08:05 1008 29.77 837 24.72 1.1 34 87 -0.7 30.7
08:10 1008 29.77 837 24.72 1 33.9 88 -0.8 30.6
08:15 1008 29.77 837 24.72 0.9 33.7 88 -0.8 30.6
08:20 1008 29.77 837 24.72 0.8 33.5 89 -0.8 30.5
08:25 1008 29.77 837 24.72 0.6 33.2 89 -0.9 30.4
08:30 1008 29.77 837 24.72 0.4 32.8 90 -1 30.2
08:35 1008 29.77 837 24.72 0.3 32.5 91 -1 30.2
08:40 1008 29.77 837 24.72 0.2 32.3 91 -1.1 30.1
08:45 1008 29.77 837 24.72 0.2 32.3 92 -1 30.2
08:50 1008 29.77 837 24.72 0.2 32.4 92 -0.9 30.3
08:55 1008 29.77 838 24.75 0.2 32.4 92 -0.9 30.4
09:00 1008 29.77 837 24.72 0.3 32.5 92 -0.9 30.4
09:05 1008 29.77 837 24.72 0.4 32.7 92 -0.8 30.6
09:10 1008 29.77 837 24.72 0.4 32.6 92 -0.8 30.6
09:15 1008 29.77 837 24.72 0.5 32.8 92 -0.7 30.8
09:20 1008 29.77 837 24.72 0.4 32.8 92 -0.7 30.7
09:25 1008 29.77 838 24.75 0.5 32.8 92 -0.7 30.7
09:30 1009 29.8 838 24.75 0.5 32.9 92 -0.7 30.7
09:35 1009 29.8 838 24.75 0.3 32.5 92 -0.9 30.4
09:40 1009 29.8 838 24.75 0.2 32.4 92 -0.9 30.4
09:45 1008 29.77 838 24.75 0.2 32.4 93 -0.8 30.5
09:50 1008 29.77 838 24.75 0.4 32.7 93 -0.6 30.9
09:55 1008 29.77 838 24.75 0.6 33.1 93 -0.4 31.2
10:00 1008 29.77 838 24.75 0.7 33.3 93 -0.4 31.3
10:05 1009 29.8 838 24.75 0.7 33.3 92 -0.4 31.3
10:10 1009 29.8 838 24.75 0.7 33.3 92 -0.5 31.2
10:15 1009 29.8 838 24.75 0.6 33.1 92 -0.6 31
10:20 1009 29.8 838 24.75 0.5 33 92 -0.6 30.8
10:25 1009 29.8 838 24.75 0.5 32.9 91 -0.7 30.7
10:30 1009 29.8 838 24.75 0.4 32.8 91 -0.8 30.5
10:35 1009 29.8 838 24.75 0.3 32.6 91 -1 30.3
10:40 1009 29.8 839 24.78 0.2 32.4 91 -1.1 30
10:45 1009 29.8 839 24.78 0.1 32.1 91 -1.3 29.7
10:50 1010 29.83 839 24.78 -0 32 91 -1.3 29.6
10:55 1009 29.8 839 24.78 -0 31.9 91 -1.3 29.6
11:00 1009 29.8 839 24.78 -0.1 31.8 91 -1.4 29.5
11:05 1009 29.8 838 24.75 -0.1 31.7 91 -1.4 29.4
11:10 1009 29.8 838 24.75 -0.1 31.7 91 -1.4 29.5
11:15 1009 29.8 838 24.75 -0.1 31.8 91 -1.4 29.5
11:20 1009 29.8 839 24.78 -0.2 31.7 91 -1.5 29.4
11:25 1009 29.8 839 24.78 -0.2 31.6 91 -1.5 29.3
11:30 1009 29.8 839 24.78 -0.2 31.7 91 -1.5 29.4
11:35 1009 29.8 838 24.75 -0.2 31.6 91 -1.5 29.4
11:40 1009 29.8 839 24.78 -0.2 31.7 91 -1.4 29.4
11:45 1010 29.83 839 24.78 -0.2 31.6 91 -1.5 29.3
11:50 1010 29.83 839 24.78 -0.2 31.6 91 -1.5 29.3
11:55 1010 29.83 839 24.78 -0.1 31.8 91 -1.4 29.5
12:00 1010 29.83 839 24.78 -0.1 31.8 91 -1.5 29.4
12:05 1009 29.8 839 24.78 -0.2 31.6 90 -1.6 29.1
12:10 1010 29.83 839 24.78 -0.4 31.4 90 -1.7 28.9
12:15 1010 29.83 839 24.78 -0.4 31.3 91 -1.7 29
12:20 1010 29.83 839 24.78 -0.4 31.3 91 -1.7 28.9
12:25 1010 29.83 839 24.78 -0.4 31.3 91 -1.7 29
12:30 1010 29.83 839 24.78 -0.4 31.3 91 -1.6 29.1
12:35 1010 29.83 839 24.78 -0.4 31.3 91 -1.6 29
12:40 1010 29.83 839 24.78 -0.4 31.4 92 -1.6 29.2
12:45 1010 29.83 839 24.78 -0.2 31.6 91 -1.5 29.2
12:50 1010 29.83 839 24.78 -0.3 31.5 91 -1.5 29.2
12:55 1010 29.83 839 24.78 -0.2 31.6 91 -1.5 29.3
13:00 1010 29.83 839 24.78 -0.2 31.7 91 -1.4 29.5
13:05 1010 29.83 839 24.78 -0.1 31.9 91 -1.4 29.5
13:10 1010 29.83 839 24.78 -0.1 31.8 91 -1.4 29.5
13:15 1010 29.83 839 24.78 -0.2 31.7 91 -1.5 29.4
13:20 1010 29.83 839 24.78 -0.2 31.6 91 -1.5 29.4
13:25 1010 29.83 839 24.78 -0.2 31.6 91 -1.5 29.4
13:30 1010 29.83 839 24.78 -0.2 31.6 91 -1.4 29.4
13:35 1010 29.83 839 24.78 -0.2 31.7 92 -1.4 29.5
13:40 1010 29.83 839 24.78 -0.1 31.7 92 -1.4 29.6
13:45 1010 29.83 839 24.78 -0.1 31.7 92 -1.3 29.6
13:50 1010 29.83 839 24.78 -0.2 31.7 91 -1.4 29.5
13:55 1010 29.83 839 24.78 -0.3 31.5 91 -1.5 29.2
14:00 1010 29.83 839 24.78 -0.3 31.5 92 -1.5 29.3
14:05 1010 29.83 839 24.78 -0.3 31.5 92 -1.5 29.3
14:10 1010 29.83 839 24.78 -0.3 31.4 92 -1.5 29.3
14:15 1010 29.83 839 24.78 -0.3 31.4 92 -1.5 29.3
14:20 1010 29.83 839 24.78 -0.3 31.5 92 -1.5 29.3
14:25 1010 29.83 839 24.78 -0.2 31.6 92 -1.4 29.4
14:30 1010 29.83 840 24.81 -0.2 31.6 91 -1.5 29.3
14:35 1010 29.83 840 24.81 -0.4 31.2 91 -1.7 28.9
14:40 1010 29.83 840 24.81 -0.5 31.1 91 -1.7 28.9
14:45 1010 29.83 840 24.81 -0.5 31.2 91 -1.7 28.9
14:50 1011 29.85 840 24.81 -0.5 31.1 91 -1.7 28.9
14:55 1011 29.85 840 24.81 -0.5 31.1 91 -1.7 28.9
15:00 1011 29.85 840 24.81 -0.4 31.2 91 -1.7 29
15:05 1011 29.85 840 24.81 -0.5 31 91 -1.8 28.8
15:10 1011 29.85 840 24.81 -0.6 31 91 -1.9 28.6
15:15 1011 29.85 840 24.81 -0.7 30.7 91 -2 28.5
15:20 1011 29.85 840 24.81 -0.8 30.6 91 -2.1 28.2
15:25 1011 29.85 840 24.81 -1 30.1 92 -2.2 28
15:30 1011 29.85 840 24.81 -1 30.3 92 -2.1 28.3
15:35 1011 29.85 840 24.81 -0.9 30.3 92 -2.1 28.2
15:40 1011 29.85 840 24.81 -1.1 30 92 -2.3 27.9
15:45 1011 29.85 840 24.81 -1.2 29.9 92 -2.3 27.9
15:50 1011 29.85 840 24.81 -1 30.2 92 -2.1 28.2
15:55 1011 29.85 841 24.83 -0.9 30.4 92 -2 28.4
16:00 1011 29.85 841 24.83 -0.9 30.4 92 -2 28.4
16:05 1011 29.85 841 24.83 -0.9 30.4 92 -2 28.4
16:10 1011 29.85 841 24.83 -0.9 30.4 92 -2 28.4
16:15 1012 29.88 841 24.83 -1 30.3 92 -2.1 28.2
16:20 1012 29.88 841 24.83 -1.3 29.6 91 -2.6 27.3
16:25 1012 29.88 841 24.83 -1.6 29.1 92 -2.8 26.9
16:30 1012 29.88 841 24.83 -1.6 29.2 92 -2.7 27.2
16:35 1012 29.88 841 24.83 -1.5 29.3 92 -2.7 27.1
16:40 1012 29.88 841 24.83 -1.7 29 92 -2.8 27
16:45 1012 29.88 841 24.83 -1.6 29.1 92 -2.7 27.1
16:50 1012 29.88 841 24.83 -1.5 29.2 92 -2.6 27.3
16:55 1012 29.88 841 24.83 -1.5 29.2 92 -2.6 27.2
17:00 1012 29.88 841 24.83 -1.7 28.9 92 -2.9 26.9
17:05 1012 29.88 841 24.83 -2 28.4 92 -3.1 26.4
17:10 1012 29.88 841 24.83 -2.2 28.1 92 -3.3 26.1
17:15 1012 29.88 841 24.83 -2.3 27.8 92 -3.4 25.8
17:20 1012 29.88 841 24.83 -2.4 27.7 92 -3.5 25.7
17:25 1012 29.88 841 24.83 -2.4 27.7 92 -3.5 25.7
17:30 1012 29.88 841 24.83 -2.4 27.6 92 -3.6 25.6
17:35 1012 29.88 841 24.83 -2.3 27.8 91 -3.5 25.6
17:40 1012 29.88 841 24.83 -2.3 27.9 90 -3.7 25.4
17:45 1012 29.88 841 24.83 -2.3 27.9 89 -3.8 25.2
17:50 1012 29.88 841 24.83 -2.2 28.1 88 -3.9 24.9
17:55 1012 29.88 841 24.83 -2.1 28.2 86 -4.1 24.7
18:00 1012 29.88 841 24.83 -2.1 28.3 85 -4.3 24.3
18:05 1012 29.88 842 24.86 -2.1 28.2 85 -4.3 24.3
18:10 1012 29.88 841 24.83 -2.1 28.3 84 -4.4 24.1
18:15 1012 29.88 841 24.83 -2 28.4 82 -4.6 23.7
18:20 1012 29.88 841 24.83 -2 28.5 83 -4.5 23.8
18:25 1012 29.88 841 24.83 -2 28.4 82 -4.7 23.5
18:30 1012 29.88 841 24.83 -1.9 28.5 80 -5 23.1
18:35 1012 29.88 841 24.83 -1.8 28.7 77 -5.3 22.5
18:40 1012 29.88 841 24.83 -1.6 29.1 78 -5 23
18:45 1012 29.88 841 24.83 -1.6 29.2 76 -5.3 22.5
18:50 1012 29.88 841 24.83 -1.5 29.2 75 -5.4 22.3
18:55 1012 29.88 842 24.86 -1.5 29.2 76 -5.3 22.5
19:00 1012 29.88 841 24.83 -1.5 29.3 74 -5.5 22.1
19:05 1012 29.88 841 24.83 -1.5 29.3 74 -5.5 22.1
19:10 1012 29.88 842 24.86 -1.6 29.1 75 -5.4 22.2
19:15 1012 29.88 842 24.86 -1.6 29.1 74 -5.6 21.9
19:20 1012 29.88 842 24.86 -1.7 29 73 -5.9 21.4
19:25 1012 29.88 842 24.86 -1.6 29 73 -5.9 21.4
19:30 1012 29.88 842 24.86 -1.6 29.1 72 -6 21.2
19:35 1013 29.91 842 24.86 -1.7 29 72 -6.1 21
19:40 1013 29.91 842 24.86 -1.7 29 72 -6.1 21.1
19:45 1013 29.91 842 24.86 -1.8 28.8 71 -6.4 20.6
19:50 1013 29.91 842 24.86 -1.6 29.1 71 -6.2 20.9
19:55 1013 29.91 842 24.86 -1.6 29.2 71 -6.1 20.9
20:00 1013 29.91 842 24.86 -1.6 29.2 71 -6.1 21
20:05 1013 29.91 842 24.86 -1.6 29.1 72 -6 21.2
20:10 1013 29.91 842 24.86 -1.8 28.8 72 -6.1 21
20:15 1013 29.91 842 24.86 -1.9 28.6 71 -6.4 20.4
20:20 1013 29.91 842 24.86 -1.8 28.8 69 -6.7 19.9
20:25 1013 29.91 842 24.86 -1.7 28.9 68 -6.8 19.7
20:30 1013 29.91 842 24.86 -1.7 29 68 -6.8 19.7
20:35 1013 29.91 842 24.86 -1.6 29.1 67 -6.9 19.5
20:40 1013 29.91 842 24.86 -1.6 29 67 -6.9 19.5
20:45 1013 29.91 842 24.86 -1.6 29.1 68 -6.7 20
20:50 1013 29.91 842 24.86 -1.7 29 69 -6.7 19.9
20:55 1013 29.91 842 24.86 -1.7 28.9 70 -6.5 20.3
21:00 1013 29.91 842 24.86 -1.7 28.9 68 -6.8 19.7
21:05 1013 29.91 842 24.86 -1.8 28.8 67 -7.1 19.3
21:10 1013 29.91 842 24.86 -1.9 28.7 68 -6.9 19.5
21:15 1013 29.91 842 24.86 -1.8 28.7 66 -7.3 18.8
21:20 1013 29.91 842 24.86 -1.8 28.7 66 -7.3 18.8
21:25 1013 29.91 842 24.86 -1.9 28.6 66 -7.4 18.7
21:30 1013 29.91 842 24.86 -1.9 28.6 66 -7.4 18.6
21:35 1013 29.91 842 24.86 -2 28.5 66 -7.4 18.6
21:40 1013 29.91 842 24.86 -2 28.4 66 -7.4 18.6
21:45 1013 29.91 842 24.86 -2.1 28.3 66 -7.6 18.3
21:50 1013 29.91 842 24.86 -2.2 28.1 66 -7.6 18.3
21:55 1013 29.91 842 24.86 -2.5 27.5 68 -7.6 18.3
22:00 1013 29.91 842 24.86 -2.7 27.1 68 -7.8 17.9
22:05 1013 29.91 842 24.86 -2.7 27.1 68 -7.9 17.8
22:10 1013 29.91 842 24.86 -2.7 27.2 67 -8 17.6
22:15 1013 29.91 842 24.86 -2.6 27.3 67 -8 17.6
22:20 1013 29.91 842 24.86 -2.5 27.4 66 -8 17.7
22:25 1013 29.91 843 24.89 -2.5 27.4 66 -8 17.6
22:30 1013 29.91 843 24.89 -2.5 27.5 66 -8 17.6
22:35 1013 29.91 843 24.89 -2.7 27.2 67 -7.9 17.7
22:40 1013 29.91 843 24.89 -2.9 26.8 67 -8.2 17.3
22:45 1013 29.91 843 24.89 -3.1 26.5 67 -8.3 17
22:50 1013 29.91 843 24.89 -3.2 26.2 68 -8.4 16.9
22:55 1013 29.91 843 24.89 -3.3 26.1 67 -8.5 16.8
23:00 1014 29.94 843 24.89 -3.3 26.1 67 -8.5 16.7
23:05 1013 29.91 843 24.89 -3.3 26 67 -8.6 16.5
23:10 1013 29.91 843 24.89 -3.4 25.9 67 -8.7 16.3
23:15 1013 29.91 843 24.89 -3.6 25.5 68 -8.6 16.5
23:20 1013 29.91 843 24.89 -3.9 25 70 -8.5 16.7
23:25 1013 29.91 843 24.89 -4.2 24.5 73 -8.2 17.2
23:30 1014 29.94 843 24.89 -4.5 23.9 74 -8.4 16.9
23:35 1014 29.94 843 24.89 -4.5 23.9 72 -8.7 16.3
23:40 1014 29.94 843 24.89 -4.5 23.9 74 -8.6 16.6
23:45 1014 29.94 843 24.89 -4.5 23.9 75 -8.3 17
23:50 1014 29.94 843 24.89 -4.7 23.6 75 -8.4 16.9
23:55 1014 29.94 843 24.89 -4.8 23.3 76 -8.4 16.8
24:00 1014 29.94 843 24.89 -4.7 23.6 75 -8.5 16.8